Time;durP1;ratioP1;P1;durP2;ratioP2;P2;SDS_P1;SDS_P2;PMS_P1;PMS_P2;Temp;Humidity;BMP_temperature;BMP_pressure;BME280_temperature;BME280_humidity;BME280_pressure;Samples;Min_cycle;Max_cycle;Signal;HPM_P1;HPM_P2
2021/03/20 00:00:50;;;;;;;13.83;6.70;;;-1.00;99.90;;;;;;5067814;28;20031;-91
2021/03/20 00:03:17;;;;;;;13.90;7.80;;;-1.00;99.90;;;;;;5046577;28;20040;-91
2021/03/20 00:05:43;;;;;;;14.97;7.77;;;-1.00;99.90;;;;;;5061960;28;20025;-91
2021/03/20 00:08:11;;;;;;;16.90;8.80;;;-1.00;99.90;;;;;;5075678;28;20051;-90
2021/03/20 00:10:38;;;;;;;18.83;9.03;;;-1.10;99.90;;;;;;5089828;28;20028;-88
2021/03/20 00:13:05;;;;;;;13.90;8.00;;;-1.10;99.90;;;;;;5082984;28;20029;-81
2021/03/20 00:15:31;;;;;;;16.50;7.77;;;-1.10;99.90;;;;;;5070288;28;20482;-80
2021/03/20 00:17:57;;;;;;;16.57;8.00;;;-1.20;99.90;;;;;;5070450;28;20384;-79
2021/03/20 00:20:35;;;;;;;14.10;7.27;;;-1.20;99.90;;;;;;5063492;28;20044;-77
2021/03/20 00:23:02;;;;;;;15.97;7.10;;;-1.10;99.90;;;;;;5059062;28;20041;-79
2021/03/20 00:25:28;;;;;;;14.03;7.70;;;-1.20;99.90;;;;;;5069544;28;20036;-79
2021/03/20 00:27:54;;;;;;;14.07;7.77;;;-1.20;99.90;;;;;;5069072;28;20076;-78
2021/03/20 00:30:20;;;;;;;13.20;7.37;;;-1.20;99.90;;;;;;5083408;28;20035;-78
2021/03/20 00:32:47;;;;;;;11.20;5.77;;;-1.10;99.90;;;;;;5081583;28;20032;-79
2021/03/20 00:35:15;;;;;;;17.30;7.40;;;-1.20;99.90;;;;;;5097539;28;20097;-80
2021/03/20 00:37:42;;;;;;;10.93;5.57;;;-1.20;99.90;;;;;;5075416;28;20052;-79
2021/03/20 00:40:12;;;;;;;13.33;7.50;;;-1.20;99.90;;;;;;5086408;28;20031;-78
2021/03/20 00:42:38;;;;;;;12.88;7.10;;;-1.20;99.90;;;;;;5085590;28;20491;-79
2021/03/20 00:45:06;;;;;;;14.67;7.70;;;-1.20;99.90;;;;;;5076048;28;20037;-78
2021/03/20 00:47:32;;;;;;;13.40;7.53;;;-1.20;99.90;;;;;;5076943;28;20028;-79
2021/03/20 00:49:58;;;;;;;13.87;7.40;;;-1.20;99.90;;;;;;5075812;28;20494;-79
2021/03/20 00:52:23;;;;;;;11.60;6.90;;;-1.30;99.90;;;;;;5084167;28;20509;-79
2021/03/20 00:54:49;;;;;;;14.57;8.07;;;-1.30;99.90;;;;;;5077549;28;20052;-79
2021/03/20 00:57:14;;;;;;;15.73;8.70;;;-1.20;99.90;;;;;;5083655;28;20680;-79
2021/03/20 00:59:41;;;;;;;14.27;7.60;;;-1.30;99.90;;;;;;5094434;28;20093;-79
2021/03/20 01:02:06;;;;;;;13.50;7.57;;;-1.20;99.90;;;;;;5081930;28;20153;-78
2021/03/20 01:04:32;;;;;;;12.53;7.40;;;-1.30;99.90;;;;;;5061096;28;20523;-79
2021/03/20 01:06:57;;;;;;;14.43;8.00;;;-1.30;99.90;;;;;;5091562;28;20104;-80
2021/03/20 01:09:23;;;;;;;11.83;6.83;;;-1.40;99.90;;;;;;5065118;28;20068;-79
2021/03/20 01:11:48;;;;;;;13.67;7.87;;;-1.40;99.90;;;;;;5069159;28;20024;-77
2021/03/20 01:14:14;;;;;;;13.53;7.87;;;-1.50;99.90;;;;;;5059093;28;20143;-79
2021/03/20 01:16:40;;;;;;;9.70;4.47;;;-1.50;99.90;;;;;;5079544;28;20046;-78
2021/03/20 01:19:06;;;;;;;9.90;5.37;;;-1.50;99.90;;;;;;5080863;28;20092;-80
2021/03/20 01:21:31;;;;;;;13.93;7.43;;;-1.60;99.90;;;;;;5090362;28;20054;-79
2021/03/20 01:23:57;;;;;;;14.73;8.00;;;-1.60;99.90;;;;;;5057953;28;20032;-80
2021/03/20 01:26:22;;;;;;;12.70;7.33;;;-1.70;99.90;;;;;;5060422;28;20048;-80
2021/03/20 01:28:48;;;;;;;16.43;7.90;;;-1.60;99.90;;;;;;5089887;28;20059;-80
2021/03/20 01:31:15;;;;;;;14.43;7.60;;;-1.70;99.90;;;;;;5073680;28;20128;-80
2021/03/20 01:33:41;;;;;;;16.00;8.23;;;-1.70;99.90;;;;;;5062263;28;20040;-81
2021/03/20 01:36:08;;;;;;;14.93;7.97;;;-1.80;99.90;;;;;;5093275;28;20391;-78
2021/03/20 01:38:34;;;;;;;14.23;7.67;;;-1.80;99.90;;;;;;5089014;28;20040;-78
2021/03/20 01:41:17;;;;;;;14.93;7.90;;;-1.80;99.90;;;;;;5088326;28;20121;-78
2021/03/20 01:43:42;;;;;;;16.27;8.37;;;-1.90;99.90;;;;;;5072139;28;20040;-78
2021/03/20 01:46:45;;;;;;;14.70;7.90;;;-1.90;99.90;;;;;;5086870;28;20035;-79
2021/03/20 01:49:21;;;;;;;16.77;8.40;;;-2.00;99.90;;;;;;5088834;28;20052;-80
2021/03/20 01:52:20;;;;;;;14.23;7.50;;;-2.00;99.90;;;;;;5081010;28;20070;-80
2021/03/20 01:55:15;;;;;;;16.27;7.47;;;-2.00;99.90;;;;;;5065853;28;20548;-79
2021/03/20 01:57:47;;;;;;;15.67;8.27;;;-2.00;99.90;;;;;;4996986;28;20042;-79
2021/03/20 02:00:28;;;;;;;15.30;7.67;;;-2.10;99.90;;;;;;4995454;28;20025;-78
2021/03/20 02:02:54;;;;;;;16.97;8.73;;;-2.10;99.90;;;;;;4997595;28;20647;-79
2021/03/20 02:05:28;;;;;;;15.37;7.60;;;-2.20;99.90;;;;;;4991085;28;20054;-79
2021/03/20 02:07:55;;;;;;;18.67;9.37;;;-2.20;99.90;;;;;;4991521;28;20101;-78
2021/03/20 02:10:23;;;;;;;15.47;8.67;;;-2.20;99.90;;;;;;4994931;28;20113;-79
2021/03/20 02:12:55;;;;;;;15.83;8.00;;;-2.20;99.90;;;;;;4993756;28;20034;-78
2021/03/20 02:15:31;;;;;;;16.53;8.43;;;-2.20;99.90;;;;;;4992222;28;20485;-78
2021/03/20 02:18:04;;;;;;;17.40;8.90;;;-2.20;99.90;;;;;;4992910;28;20042;-79
2021/03/20 02:21:01;;;;;;;15.33;7.93;;;-2.10;99.90;;;;;;4991878;28;20039;-78
2021/03/20 02:23:48;;;;;;;16.40;8.77;;;-2.10;99.90;;;;;;4916756;29;20048;-79
2021/03/20 02:27:03;;;;;;;17.23;8.17;;;-2.10;99.90;;;;;;4927125;29;20044;-79
2021/03/20 02:29:53;;;;;;;17.20;8.90;;;-2.00;99.90;;;;;;4937295;29;20082;-80
2021/03/20 02:32:28;;;;;;;16.33;8.83;;;-2.00;99.90;;;;;;4935767;29;20533;-79
2021/03/20 02:35:15;;;;;;;15.70;8.80;;;-2.00;99.90;;;;;;4996295;28;20022;-79
2021/03/20 02:37:55;;;;;;;17.40;9.23;;;-1.90;99.90;;;;;;5009297;28;20064;-79
2021/03/20 02:40:40;;;;;;;18.50;9.13;;;-1.90;99.90;;;;;;5011119;28;20104;-79
2021/03/20 02:43:11;;;;;;;18.07;9.50;;;-1.80;99.90;;;;;;5009163;28;20034;-81
2021/03/20 02:45:40;;;;;;;18.73;8.73;;;-1.80;99.90;;;;;;5016371;28;20042;-79
2021/03/20 02:48:26;;;;;;;17.08;9.50;;;-1.80;99.90;;;;;;5006926;28;20521;-79
2021/03/20 02:51:31;;;;;;;17.57;9.53;;;-1.70;99.90;;;;;;5016823;28;20603;-79
2021/03/20 02:54:11;;;;;;;19.63;9.40;;;-1.60;99.90;;;;;;5008495;28;20116;-79
2021/03/20 02:56:47;;;;;;;18.03;9.37;;;-1.60;99.90;;;;;;5012720;28;20457;-79
2021/03/20 02:59:14;;;;;;;17.97;9.53;;;-1.60;99.90;;;;;;5036613;28;20032;-79
2021/03/20 03:01:45;;;;;;;17.80;9.63;;;-1.60;99.90;;;;;;5087579;28;20038;-79
2021/03/20 03:04:14;;;;;;;14.20;7.70;;;-1.60;99.90;;;;;;5082050;28;20076;-80
2021/03/20 03:06:52;;;;;;;18.55;9.35;;;-1.60;99.90;;;;;;5085253;28;20039;-79
2021/03/20 03:09:35;;;;;;;16.70;7.93;;;-1.60;99.90;;;;;;5081224;28;20543;-79
2021/03/20 03:12:05;;;;;;;14.40;6.93;;;-1.60;99.90;;;;;;5085107;28;20032;-79
2021/03/20 03:14:43;;;;;;;13.77;7.13;;;-1.60;99.90;;;;;;5080429;28;20015;-79
2021/03/20 03:17:10;;;;;;;16.27;7.87;;;-1.60;99.90;;;;;;5074620;28;20333;-79
2021/03/20 03:19:54;;;;;;;13.03;7.00;;;-1.60;99.90;;;;;;5091621;28;20038;-78
2021/03/20 03:22:39;;;;;;;16.77;8.23;;;-1.60;99.90;;;;;;5077129;28;20029;-79
2021/03/20 03:25:09;;;;;;;14.80;8.27;;;-1.70;99.90;;;;;;5084647;28;20024;-78
2021/03/20 03:27:39;;;;;;;16.03;8.07;;;-1.60;99.90;;;;;;5083114;28;20045;-80
2021/03/20 03:30:08;;;;;;;12.97;6.80;;;-1.60;99.90;;;;;;5074779;28;20035;-79
2021/03/20 03:32:36;;;;;;;14.00;7.32;;;-1.60;99.90;;;;;;5085883;28;20063;-79
2021/03/20 03:35:23;;;;;;;14.23;7.27;;;-1.60;99.90;;;;;;5086666;28;20028;-77
2021/03/20 03:38:00;;;;;;;11.67;6.40;;;-1.60;99.90;;;;;;5089457;28;20032;-79
2021/03/20 03:40:56;;;;;;;10.53;5.67;;;-1.60;99.90;;;;;;5088929;28;20514;-79
2021/03/20 03:43:22;;;;;;;10.33;6.03;;;-1.60;99.90;;;;;;4989825;28;20038;-78
2021/03/20 03:45:49;;;;;;;12.83;6.83;;;-1.60;99.90;;;;;;4988843;28;20038;-81
2021/03/20 03:48:20;;;;;;;11.70;5.47;;;-1.60;99.90;;;;;;4989106;28;20081;-80
2021/03/20 03:50:47;;;;;;;9.53;4.20;;;-1.60;99.90;;;;;;4990298;28;20113;-78
2021/03/20 03:53:17;;;;;;;13.70;6.17;;;-1.60;99.90;;;;;;4998776;28;20030;-79
2021/03/20 03:55:43;;;;;;;10.67;5.63;;;-1.60;99.90;;;;;;5002512;28;20026;-80
2021/03/20 03:58:08;;;;;;;14.77;6.90;;;-1.60;99.90;;;;;;4988866;28;20039;-78
2021/03/20 04:00:47;;;;;;;12.03;6.43;;;-1.60;99.90;;;;;;4989200;28;20026;-81
2021/03/20 04:03:41;;;;;;;13.50;7.00;;;-1.60;99.90;;;;;;4990159;28;20030;-80
2021/03/20 04:07:01;;;;;;;10.93;6.10;;;-1.60;99.90;;;;;;5003038;28;20420;-80
2021/03/20 04:09:36;;;;;;;;;;;-1.60;99.90;;;;;;4922695;29;20166;-80
2021/03/20 04:12:20;;;;;;;11.93;5.83;;;-1.60;99.90;;;;;;4913166;29;19919;-79
2021/03/20 04:15:01;;;;;;;10.80;6.07;;;-1.60;99.90;;;;;;4913074;29;20040;-80
2021/03/20 04:17:47;;;;;;;13.13;6.80;;;-1.60;99.90;;;;;;4912827;29;20143;-79
2021/03/20 04:20:24;;;;;;;14.20;6.13;;;-1.60;99.90;;;;;;4940016;28;20552;-80
2021/03/20 04:23:04;;;;;;;12.83;6.33;;;-1.60;99.90;;;;;;5008849;28;20033;-81
2021/03/20 04:25:34;;;;;;;13.48;6.10;;;-1.60;99.90;;;;;;5004705;28;20037;-80
2021/03/20 04:28:26;;;;;;;11.77;6.50;;;-1.70;99.90;;;;;;5008136;28;20058;-81
2021/03/20 04:31:17;;;;;;;14.40;6.93;;;-1.80;99.90;;;;;;5001928;28;20090;-79
2021/03/20 04:34:09;;;;;;;14.70;7.30;;;-1.70;99.90;;;;;;4991025;28;20109;-79
2021/03/20 04:37:01;;;;;;;15.57;7.17;;;-1.80;99.90;;;;;;5006886;28;20453;-79
2021/03/20 04:39:31;;;;;;;15.10;7.20;;;-1.70;99.90;;;;;;5000093;28;20107;-81
2021/03/20 04:41:59;;;;;;;12.73;7.10;;;-1.70;99.90;;;;;;5000771;28;20029;-79
2021/03/20 04:44:25;;;;;;;12.80;6.77;;;-1.80;99.90;;;;;;5083540;28;20067;-79
2021/03/20 04:46:53;;;;;;;14.93;6.87;;;-1.80;99.90;;;;;;5089782;28;20631;-79
2021/03/20 04:49:27;;;;;;;15.73;7.73;;;-1.80;99.90;;;;;;5084660;28;20593;-80
2021/03/20 04:52:06;;;;;;;16.00;7.77;;;-1.80;99.90;;;;;;5080862;28;20367;-79
2021/03/20 04:54:32;;;;;;;13.98;7.88;;;-1.70;99.90;;;;;;5088240;28;20054;-80
2021/03/20 04:57:21;;;;;;;16.10;7.43;;;-1.80;99.90;;;;;;5054561;28;20392;-80
2021/03/20 05:00:05;;;;;;;13.55;7.60;;;-1.80;99.90;;;;;;5090757;28;20142;-78
2021/03/20 05:02:45;;;;;;;12.30;7.13;;;-1.80;99.90;;;;;;5098232;28;20032;-80
2021/03/20 05:05:16;;;;;;;12.83;6.43;;;-1.80;99.90;;;;;;5077744;28;20161;-79
2021/03/20 05:07:42;;;;;;;12.77;7.00;;;-1.80;99.90;;;;;;5072784;28;20172;-80
2021/03/20 05:10:21;;;;;;;13.97;7.10;;;-1.80;99.90;;;;;;5075710;28;20054;-79
2021/03/20 05:12:49;;;;;;;13.27;7.20;;;-1.90;99.90;;;;;;5085399;28;20062;-79
2021/03/20 05:15:31;;;;;;;12.43;6.50;;;-1.80;99.90;;;;;;5074226;28;20476;-80
2021/03/20 05:17:57;;;;;;;11.93;6.03;;;-1.90;99.90;;;;;;5072436;28;20104;-79
2021/03/20 05:20:24;;;;;;;11.97;7.30;;;-1.90;99.90;;;;;;5057111;28;20031;-79
2021/03/20 05:22:50;;;;;;;11.80;6.63;;;-1.90;99.90;;;;;;5090523;28;20438;-78
2021/03/20 05:25:18;;;;;;;13.10;6.97;;;-1.80;99.90;;;;;;5090399;28;20027;-81
2021/03/20 05:27:44;;;;;;;12.87;6.17;;;-1.90;99.90;;;;;;5090577;28;20092;-79
2021/03/20 05:30:11;;;;;;;12.87;6.97;;;-1.80;99.90;;;;;;5063149;28;20035;-78
2021/03/20 05:32:37;;;;;;;13.27;6.60;;;-1.90;99.90;;;;;;5056395;28;20499;-79
2021/03/20 05:35:07;;;;;;;14.10;7.33;;;-1.90;99.90;;;;;;5077172;28;20020;-79
2021/03/20 05:37:36;;;;;;;14.73;7.97;;;-1.90;99.90;;;;;;5074850;28;20128;-79
2021/03/20 05:40:04;;;;;;;9.48;4.55;;;-1.90;99.90;;;;;;5086907;28;20048;-79
2021/03/20 05:42:36;;;;;;;12.10;6.70;;;-1.90;99.90;;;;;;5081262;28;20044;-79
2021/03/20 05:45:23;;;;;;;13.73;6.90;;;-1.90;99.90;;;;;;5078449;28;20116;-79
2021/03/20 05:48:17;;;;;;;12.80;6.67;;;-1.90;99.90;;;;;;5081403;28;20020;-79
2021/03/20 05:51:14;;;;;;;12.30;5.27;;;-1.90;99.90;;;;;;5086341;28;20051;-79
2021/03/20 05:54:11;;;;;;;11.37;5.77;;;-1.90;99.90;;;;;;5081315;28;20052;-80
2021/03/20 05:56:58;;;;;;;14.30;6.83;;;-1.90;99.90;;;;;;5078209;28;20043;-79
2021/03/20 05:59:49;;;;;;;12.03;6.80;;;-1.90;99.90;;;;;;5075628;28;20028;-80
2021/03/20 06:02:38;;;;;;;12.33;6.20;;;-1.90;99.90;;;;;;5082096;28;20499;-79
2021/03/20 06:05:23;;;;;;;10.38;5.03;;;-1.90;99.90;;;;;;5084815;28;20028;-79
2021/03/20 06:08:15;;;;;;;8.40;4.30;;;-2.00;99.90;;;;;;5095873;28;20499;-79
2021/03/20 06:11:00;;;;;;;6.47;3.40;;;-2.00;99.90;;;;;;5087024;28;20039;-82
2021/03/20 06:13:29;;;;;;;4.67;2.70;;;-2.10;99.90;;;;;;5010878;28;20378;-80
2021/03/20 06:16:05;;;;;;;3.33;1.87;;;-2.20;99.90;;;;;;5013678;28;20532;-79
2021/03/20 06:19:01;;;;;;;7.17;3.77;;;-2.20;99.90;;;;;;5013848;28;20049;-80
2021/03/20 06:21:59;;;;;;;8.83;4.43;;;-2.20;99.90;;;;;;5007878;28;20555;-80
2021/03/20 06:24:37;;;;;;;8.63;4.33;;;-2.10;99.90;;;;;;5010152;28;20121;-83
2021/03/20 06:27:08;;;;;;;7.77;3.80;;;-2.10;99.90;;;;;;5009339;28;20124;-80
2021/03/20 06:29:40;;;;;;;6.60;3.87;;;-2.10;99.90;;;;;;5011127;28;20440;-80
2021/03/20 06:32:29;;;;;;;7.90;4.70;;;-2.10;99.90;;;;;;5010217;28;20547;-79
2021/03/20 06:35:18;;;;;;;7.13;4.07;;;-2.10;99.90;;;;;;5009190;28;20032;-79
2021/03/20 06:37:53;;;;;;;8.07;3.97;;;-2.00;99.90;;;;;;5006294;28;20071;-81
2021/03/20 06:40:24;;;;;;;8.60;4.97;;;-1.80;99.90;;;;;;5010522;28;20116;-80
2021/03/20 06:42:51;;;;;;;8.17;4.80;;;-1.80;99.90;;;;;;4997221;28;20077;-80
2021/03/20 06:45:28;;;;;;;8.60;4.53;;;-1.80;99.90;;;;;;5009890;28;20069;-81
2021/03/20 06:47:58;;;;;;;7.83;4.73;;;-1.70;99.90;;;;;;5010896;28;20034;-81
2021/03/20 06:50:28;;;;;;;7.23;3.70;;;-1.60;99.90;;;;;;5042944;28;20050;-80
2021/03/20 06:52:57;;;;;;;7.67;5.00;;;-1.70;99.90;;;;;;5086717;28;20099;-80
2021/03/20 06:55:33;;;;;;;8.07;5.10;;;-1.70;99.90;;;;;;5074725;28;20058;-79
2021/03/20 06:58:04;;;;;;;6.23;4.30;;;-1.70;99.90;;;;;;5077312;28;20045;-81
2021/03/20 07:00:32;;;;;;;7.60;4.70;;;-1.80;99.90;;;;;;5082123;28;20021;-81
2021/03/20 07:03:13;;;;;;;9.80;5.70;;;-1.80;99.90;;;;;;5081948;28;20037;-83
2021/03/20 07:05:50;;;;;;;9.33;5.50;;;-1.60;99.90;;;;;;5076448;28;20035;-81
2021/03/20 07:08:56;;;;;;;6.57;4.33;;;-1.60;99.90;;;;;;5089027;28;20518;-82
2021/03/20 07:12:02;;;;;;;5.57;3.73;;;-1.80;99.90;;;;;;5012929;28;20030;-80
2021/03/20 07:14:49;;;;;;;5.63;2.73;;;-2.00;99.90;;;;;;4939438;29;20080;-81
2021/03/20 07:17:17;;;;;;;7.03;3.63;;;-2.00;99.90;;;;;;4919364;29;20052;-81
2021/03/20 07:20:08;;;;;;;7.90;4.37;;;-1.90;99.90;;;;;;4934402;29;20102;-79
2021/03/20 07:22:47;;;;;;;8.87;5.57;;;-1.80;99.90;;;;;;4934371;29;20044;-80
2021/03/20 07:25:44;;;;;;;9.50;5.28;;;-1.80;99.90;;;;;;4930067;29;20428;-81
2021/03/20 07:28:12;;;;;;;7.13;4.13;;;-1.80;99.90;;;;;;4926413;29;20048;-80
2021/03/20 07:30:44;;;;;;;9.90;5.37;;;-2.10;99.90;;;;;;4939689;29;20042;-79
2021/03/20 07:33:41;;;;;;;7.50;4.40;;;-2.00;99.90;;;;;;4934941;29;20474;-80
2021/03/20 07:36:24;;;;;;;7.77;3.77;;;-1.70;99.90;;;;;;4932108;29;20043;-81
2021/03/20 07:39:20;;;;;;;5.43;3.10;;;-1.60;99.90;;;;;;4929839;29;20067;-80
2021/03/20 07:41:59;;;;;;;6.47;4.07;;;-1.70;99.90;;;;;;4951144;28;20053;-81
2021/03/20 07:44:27;;;;;;;6.55;3.83;;;-1.30;99.90;;;;;;4991041;28;20387;-80
2021/03/20 07:46:55;;;;;;;7.67;4.57;;;-1.30;99.90;;;;;;5007931;28;20490;-80
2021/03/20 07:49:34;;;;;;;7.03;4.50;;;-1.10;99.90;;;;;;5010286;28;20033;-79
2021/03/20 07:52:04;;;;;;;6.07;4.47;;;-1.00;99.90;;;;;;5064289;28;20040;-78
2021/03/20 07:54:38;;;;;;;7.82;5.07;;;-1.00;99.90;;;;;;5075744;28;20037;-79
2021/03/20 07:57:16;;;;;;;5.90;3.57;;;-1.10;99.90;;;;;;5073117;28;20040;-80
2021/03/20 07:59:52;;;;;;;4.80;2.30;;;-1.40;99.90;;;;;;5080822;28;20149;-79
2021/03/20 08:02:39;;;;;;;7.10;3.73;;;-1.80;99.90;;;;;;5084570;28;20557;-79
2021/03/20 08:05:30;;;;;;;8.20;5.10;;;-1.90;99.90;;;;;;5078102;28;20029;-79
2021/03/20 08:07:55;;;;;;;6.17;3.90;;;-1.80;99.90;;;;;;5078843;28;20112;-80
2021/03/20 08:10:34;;;;;;;4.80;3.17;;;-1.80;99.90;;;;;;5080090;28;20059;-77
2021/03/20 08:13:14;;;;;;;6.43;3.23;;;-1.80;99.90;;;;;;5079563;28;20381;-80
2021/03/20 08:15:43;;;;;;;8.27;4.20;;;-1.80;99.90;;;;;;5078671;28;20036;-79
2021/03/20 08:18:28;;;;;;;6.93;3.90;;;-1.50;99.90;;;;;;5086998;28;20090;-81
2021/03/20 08:21:15;;;;;;;7.00;4.33;;;-1.50;99.90;;;;;;5079139;28;20067;-79
2021/03/20 08:24:15;;;;;;;6.10;3.13;;;-1.30;99.90;;;;;;5061853;28;20024;-79
2021/03/20 08:27:02;;;;;;;5.80;4.03;;;-1.20;99.90;;;;;;5080869;28;20035;-80
2021/03/20 08:30:05;;;;;;;5.40;3.13;;;-1.20;99.90;;;;;;5056496;28;20044;-80
2021/03/20 08:32:42;;;;;;;5.90;3.97;;;-1.20;99.90;;;;;;5082847;28;20031;-80
2021/03/20 08:35:36;;;;;;;5.77;3.90;;;-0.90;99.90;;;;;;5078192;28;20052;-79
2021/03/20 08:38:18;;;;;;;4.70;2.27;;;-1.10;99.90;;;;;;5060101;28;20123;-78
2021/03/20 08:40:57;;;;;;;6.47;4.10;;;-1.10;99.90;;;;;;5083499;28;20027;-77
2021/03/20 08:43:51;;;;;;;6.35;3.08;;;-1.30;99.90;;;;;;5077760;28;20065;-77
2021/03/20 08:46:53;;;;;;;7.27;4.60;;;-1.10;99.90;;;;;;5065747;28;20032;-77
2021/03/20 08:49:49;;;;;;;4.90;2.80;;;-0.80;99.90;;;;;;5077915;28;20032;-81
2021/03/20 08:52:38;;;;;;;6.50;3.97;;;-1.00;99.90;;;;;;5081235;28;20425;-80
2021/03/20 08:55:28;;;;;;;5.60;2.80;;;-0.80;99.90;;;;;;5083716;28;20032;-79
2021/03/20 08:58:08;;;;;;;6.87;3.60;;;-0.80;99.90;;;;;;5073497;28;20052;-80
2021/03/20 09:00:43;;;;;;;8.77;4.13;;;-0.70;99.90;;;;;;5045581;28;20396;-80
2021/03/20 09:03:13;;;;;;;5.63;3.73;;;-0.40;99.90;;;;;;5029898;28;20049;-78
2021/03/20 09:05:48;;;;;;;4.90;3.70;;;-0.20;99.90;;;;;;5049369;28;20100;-76
2021/03/20 09:08:29;;;;;;;6.87;3.80;;;0.00;99.90;;;;;;5049928;28;20519;-79
2021/03/20 09:11:25;;;;;;;5.47;3.47;;;-0.20;99.90;;;;;;5054855;28;20435;-77
2021/03/20 09:14:09;;;;;;;6.57;4.03;;;0.00;99.90;;;;;;5052260;28;20029;-77
2021/03/20 09:16:44;;;;;;;5.70;3.90;;;-0.10;99.90;;;;;;5052510;28;20476;-79
2021/03/20 09:19:19;;;;;;;4.63;2.70;;;-0.30;99.90;;;;;;5054309;28;20367;-78
2021/03/20 09:21:46;;;;;;;8.63;4.03;;;-0.90;99.90;;;;;;5054518;28;20021;-78
2021/03/20 09:24:20;;;;;;;5.90;3.30;;;-0.80;99.90;;;;;;5053058;28;20024;-79
2021/03/20 09:26:50;;;;;;;6.80;4.20;;;-0.60;99.90;;;;;;5045204;28;20021;-79
2021/03/20 09:29:22;;;;;;;7.70;4.30;;;-0.70;99.90;;;;;;5055003;28;20052;-79
2021/03/20 09:31:53;;;;;;;7.57;3.80;;;-0.60;99.90;;;;;;5054092;28;20025;-80
2021/03/20 09:34:37;;;;;;;6.47;4.00;;;-0.70;99.90;;;;;;5054260;28;20229;-77
2021/03/20 09:37:18;;;;;;;7.60;4.10;;;-0.60;99.90;;;;;;5053853;28;20029;-77
2021/03/20 09:39:57;;;;;;;6.00;3.97;;;-0.60;99.90;;;;;;5052793;28;20041;-81
2021/03/20 09:42:26;;;;;;;6.82;3.92;;;-0.60;99.90;;;;;;5052513;28;20025;-81
2021/03/20 09:44:53;;;;;;;6.20;3.58;;;-0.40;99.90;;;;;;5056500;28;20033;-82
2021/03/20 09:47:31;;;;;;;6.00;4.10;;;-0.40;99.90;;;;;;5054518;28;20025;-79
2021/03/20 09:50:00;;;;;;;6.27;3.97;;;-0.10;99.90;;;;;;5046455;28;20033;-82
2021/03/20 09:52:38;;;;;;;6.35;4.03;;;0.00;99.90;;;;;;5046409;28;20037;-83
2021/03/20 09:55:25;;;;;;;4.87;3.20;;;-0.10;99.90;;;;;;5052939;28;20025;-83
2021/03/20 09:57:52;;;;;;;5.23;3.93;;;-0.10;99.90;;;;;;5054555;28;20087;-82
2021/03/20 10:00:50;;;;;;;5.90;4.10;;;-0.10;99.90;;;;;;5055055;28;20473;-84
2021/03/20 10:03:44;;;;;;;4.70;3.63;;;0.20;99.90;;;;;;5028925;28;20045;-83
2021/03/20 10:06:14;;;;;;;5.67;3.63;;;0.10;99.90;;;;;;5022789;28;20216;-83
2021/03/20 10:08:42;;;;;;;;;;;-0.10;99.90;;;;;;5025061;28;20033;-83
2021/03/20 10:11:33;;;;;;;5.47;3.63;;;-0.40;99.90;;;;;;5029962;28;20430;-83
2021/03/20 10:13:59;;;;;;;7.10;3.40;;;-0.30;99.90;;;;;;5017528;28;20042;-84
2021/03/20 10:16:30;;;;;;;7.97;4.50;;;-0.30;99.90;;;;;;5021893;28;20037;-80
2021/03/20 10:19:10;;;;;;;6.47;4.10;;;-0.40;99.90;;;;;;5024187;28;20130;-82
2021/03/20 10:21:36;;;;;;;5.27;3.80;;;-0.10;99.90;;;;;;5014317;28;20041;-80
2021/03/20 10:24:26;;;;;;;5.83;3.83;;;0.10;99.90;;;;;;5025586;28;20393;-82
2021/03/20 10:27:17;;;;;;;5.85;3.15;;;0.40;99.90;;;;;;5041771;28;20017;-79
2021/03/20 10:29:43;;;;;;;6.20;3.70;;;0.50;99.90;;;;;;5028162;28;20041;-83
2021/03/20 10:32:18;;;;;;;8.17;3.47;;;0.50;99.90;;;;;;5009843;28;20095;-82
2021/03/20 10:34:48;;;;;;;6.23;4.37;;;0.40;99.90;;;;;;5016146;28;20033;-84
2021/03/20 10:37:14;;;;;;;;;;;0.00;99.90;;;;;;5017296;28;20030;-83
2021/03/20 10:39:43;;;;;;;6.73;4.33;;;-0.30;99.90;;;;;;5045667;28;20442;-85
2021/03/20 10:42:30;;;;;;;7.53;5.22;;;-0.60;99.90;;;;;;5045543;28;20028;-80
2021/03/20 10:45:03;;;;;;;10.37;4.87;;;-0.50;99.90;;;;;;5049901;28;20040;-79
2021/03/20 10:47:34;;;;;;;8.93;5.90;;;-0.50;99.90;;;;;;5050355;28;20468;-78
2021/03/20 10:50:08;;;;;;;8.03;5.27;;;-0.60;99.90;;;;;;5054015;28;20115;-80
2021/03/20 10:52:40;;;;;;;8.00;5.63;;;-0.80;99.90;;;;;;5054005;28;20020;-81
2021/03/20 10:55:19;;;;;;;8.77;5.57;;;-0.70;99.90;;;;;;5054607;28;20435;-81
2021/03/20 10:57:45;;;;;;;7.97;4.80;;;-0.40;99.90;;;;;;5048968;28;20112;-80
2021/03/20 11:00:27;;;;;;;6.67;4.10;;;-0.20;99.90;;;;;;5052128;28;20021;-81
2021/03/20 11:03:06;;;;;;;5.87;3.87;;;-0.50;99.90;;;;;;5051198;28;20151;-81
2021/03/20 11:05:32;;;;;;;7.78;4.55;;;-0.50;99.90;;;;;;5052951;28;20017;-79
2021/03/20 11:08:10;;;;;;;5.33;3.77;;;-0.50;99.90;;;;;;5054171;28;20032;-83
2021/03/20 11:10:41;;;;;;;7.30;4.27;;;-0.70;99.90;;;;;;5054651;28;20025;-80
2021/03/20 11:13:33;;;;;;;6.47;4.13;;;-0.40;99.90;;;;;;5051924;28;20106;-80
2021/03/20 11:16:26;;;;;;;6.80;4.40;;;-0.10;99.90;;;;;;5053484;28;20017;-81
2021/03/20 11:18:56;;;;;;;5.80;4.30;;;-0.10;99.90;;;;;;5053491;28;20053;-80
2021/03/20 11:21:38;;;;;;;6.87;4.47;;;-0.10;99.90;;;;;;5052085;28;20025;-81
2021/03/20 11:24:08;;;;;;;6.57;4.10;;;0.10;99.90;;;;;;5051797;28;20059;-79
2021/03/20 11:26:44;;;;;;;6.47;4.67;;;0.00;99.90;;;;;;5054724;28;20017;-82
2021/03/20 11:29:28;;;;;;;9.07;4.40;;;0.10;99.90;;;;;;5058762;28;20096;-85
2021/03/20 11:32:01;;;;;;;11.80;6.80;;;0.20;99.90;;;;;;5074110;28;20029;-84
2021/03/20 11:34:32;;;;;;;8.37;5.23;;;0.00;99.90;;;;;;5061848;28;20409;-80
2021/03/20 11:37:00;;;;;;;10.47;6.70;;;-0.30;99.90;;;;;;5045093;28;20475;-77
2021/03/20 11:39:26;;;;;;;8.23;5.47;;;-0.40;99.90;;;;;;5051068;28;20040;-81
2021/03/20 11:42:08;;;;;;;10.83;6.50;;;-0.50;99.90;;;;;;5050703;28;20032;-80
2021/03/20 11:44:42;;;;;;;9.23;5.73;;;-0.50;99.90;;;;;;5036216;28;20041;-79
2021/03/20 11:47:23;;;;;;;12.63;6.93;;;-0.60;99.90;;;;;;5044194;28;20021;-78
2021/03/20 11:49:52;;;;;;;10.10;6.43;;;-0.60;99.90;;;;;;5052162;28;20023;-79
2021/03/20 11:52:22;;;;;;;8.85;5.97;;;-0.40;99.90;;;;;;5047462;28;20032;-79
2021/03/20 11:55:05;;;;;;;12.67;5.60;;;-0.50;99.90;;;;;;5048269;28;20025;-79
2021/03/20 11:57:37;;;;;;;11.93;6.87;;;-0.50;99.90;;;;;;5046194;28;20041;-79
2021/03/20 12:00:29;;;;;;;11.20;6.47;;;-0.60;99.90;;;;;;5049680;28;21419;-78
2021/03/20 12:02:55;;;;;;;8.77;5.73;;;-0.50;99.90;;;;;;5033010;28;20501;-80
2021/03/20 12:05:28;;;;;;;8.73;5.57;;;-0.60;99.90;;;;;;5052662;28;20047;-79
2021/03/20 12:08:20;;;;;;;7.13;3.83;;;-0.40;99.90;;;;;;5055382;28;20021;-79
2021/03/20 12:11:04;;;;;;;11.13;5.90;;;-0.40;99.90;;;;;;5039650;28;20037;-78
2021/03/20 12:13:44;;;;;;;8.17;5.37;;;-0.30;99.90;;;;;;5049115;28;20035;-78
2021/03/20 12:16:32;;;;;;;6.87;4.43;;;-0.10;99.90;;;;;;5048909;28;20500;-78
2021/03/20 12:19:11;;;;;;;6.97;4.83;;;-0.20;99.90;;;;;;5047790;28;20029;-78
2021/03/20 12:21:50;;;;;;;7.15;4.63;;;0.00;99.90;;;;;;5044146;28;20565;-77
2021/03/20 12:24:23;;;;;;;9.02;4.90;;;0.10;99.90;;;;;;5045599;28;20024;-79
2021/03/20 12:26:49;;;;;;;9.30;5.43;;;0.20;99.90;;;;;;5046898;28;20189;-78
2021/03/20 12:29:35;;;;;;;9.23;5.10;;;0.30;99.90;;;;;;5047764;28;20091;-78
2021/03/20 12:32:24;;;;;;;6.80;4.30;;;0.30;99.90;;;;;;5048282;28;20032;-78
2021/03/20 12:34:51;;;;;;;;;;;0.20;99.90;;;;;;5049575;28;20032;-78
2021/03/20 12:37:22;;;;;;;6.63;4.20;;;0.10;99.90;;;;;;5052133;28;20316;-81
2021/03/20 12:39:49;;;;;;;8.17;4.43;;;0.20;99.90;;;;;;5051961;28;20025;-80
2021/03/20 12:42:16;;;;;;;7.63;3.20;;;0.20;99.90;;;;;;5047733;28;20527;-80
2021/03/20 12:44:47;;;;;;;4.47;2.17;;;0.40;99.90;;;;;;5049739;28;20481;-81
2021/03/20 12:47:18;;;;;;;6.57;3.30;;;-0.30;99.90;;;;;;5052412;28;20035;-81
2021/03/20 12:49:44;;;;;;;6.17;3.40;;;0.20;99.90;;;;;;5054208;28;20024;-79
2021/03/20 12:52:21;;;;;;;5.47;3.60;;;0.30;99.90;;;;;;5050343;28;20025;-79
2021/03/20 12:54:51;;;;;;;8.80;4.00;;;0.50;99.90;;;;;;5047451;28;20033;-81
2021/03/20 12:57:28;;;;;;;4.90;3.25;;;0.60;99.90;;;;;;5047907;28;20037;-81
2021/03/20 12:59:54;;;;;;;5.37;2.87;;;0.80;99.90;;;;;;5053374;28;20021;-80
2021/03/20 13:02:20;;;;;;;5.30;3.23;;;0.80;99.90;;;;;;5048911;28;20095;-84
2021/03/20 13:04:47;;;;;;;5.57;3.50;;;0.90;99.90;;;;;;5051724;28;20427;-80
2021/03/20 13:07:13;;;;;;;5.20;3.27;;;0.60;99.90;;;;;;5052825;28;20048;-78
